createdAt,value
2017-09-17T00:01:10.250Z,14.50
2017-09-17T00:03:37.699Z,14.40
2017-09-17T00:06:05.159Z,14.40
2017-09-17T00:08:32.627Z,14.50
2017-09-17T00:11:00.067Z,14.50
2017-09-17T00:13:27.547Z,14.40
2017-09-17T00:15:54.988Z,14.40
2017-09-17T00:18:22.682Z,14.30
2017-09-17T00:20:50.115Z,14.40
2017-09-17T00:23:17.671Z,14.50
2017-09-17T00:25:45.123Z,14.60
2017-09-17T00:28:12.578Z,14.60
2017-09-17T00:30:40.011Z,14.60
2017-09-17T00:33:07.499Z,14.70
2017-09-17T00:35:34.926Z,14.60
2017-09-17T00:38:02.395Z,14.60
2017-09-17T00:40:29.871Z,14.50
2017-09-17T00:42:57.414Z,14.60
2017-09-17T00:45:24.876Z,14.60
2017-09-17T00:47:52.337Z,14.60
2017-09-17T00:50:19.779Z,14.50
2017-09-17T00:52:47.224Z,14.50
2017-09-17T00:55:14.668Z,14.50
2017-09-17T00:57:42.118Z,14.50
2017-09-17T01:00:09.556Z,14.50
2017-09-17T01:02:36.993Z,14.50
2017-09-17T01:05:04.443Z,14.50
2017-09-17T01:07:31.891Z,14.60
2017-09-17T01:09:59.426Z,14.60
2017-09-17T01:12:26.895Z,14.40
2017-09-17T01:14:55.107Z,14.20
2017-09-17T01:17:23.361Z,14.20
2017-09-17T01:19:50.803Z,14.20
2017-09-17T01:22:18.233Z,14.10
2017-09-17T01:24:45.789Z,14.10
2017-09-17T01:27:13.231Z,14.10
2017-09-17T01:29:40.671Z,14.10
2017-09-17T01:32:09.104Z,14.00
2017-09-17T01:34:36.626Z,14.00
2017-09-17T01:37:04.074Z,14.00
2017-09-17T01:39:32.277Z,13.90
2017-09-17T01:41:59.737Z,13.80
2017-09-17T01:44:27.175Z,13.90
2017-09-17T01:46:54.626Z,13.80
2017-09-17T01:49:22.105Z,13.70
2017-09-17T01:51:49.599Z,13.60
2017-09-17T01:54:17.118Z,13.60
2017-09-17T01:56:44.779Z,13.60
2017-09-17T01:59:12.219Z,13.60
2017-09-17T02:01:39.658Z,13.60
2017-09-17T02:04:07.107Z,13.50
2017-09-17T02:06:34.704Z,13.20
2017-09-17T02:09:02.163Z,13.00
2017-09-17T02:11:29.623Z,12.90
2017-09-17T02:13:57.188Z,12.90
2017-09-17T02:16:24.654Z,13.00
2017-09-17T02:18:52.102Z,13.10
2017-09-17T02:21:19.522Z,13.10
2017-09-17T02:23:46.971Z,13.10
2017-09-17T02:26:14.575Z,13.10
2017-09-17T02:28:42.014Z,13.10
2017-09-17T02:31:09.459Z,13.20
2017-09-17T02:33:36.962Z,13.20
2017-09-17T02:36:04.517Z,13.00
2017-09-17T02:38:31.950Z,13.00
2017-09-17T02:40:59.394Z,13.00
2017-09-17T02:43:26.850Z,13.00
2017-09-17T02:45:54.303Z,13.10
2017-09-17T02:48:21.742Z,13.20
2017-09-17T02:50:49.234Z,13.30
2017-09-17T02:53:16.692Z,13.30
2017-09-17T02:55:44.253Z,13.20
2017-09-17T02:58:11.710Z,13.10
2017-09-17T03:00:39.263Z,13.10
2017-09-17T03:03:06.719Z,13.10
2017-09-17T03:05:34.218Z,13.00
2017-09-17T03:08:01.655Z,12.90
2017-09-17T03:10:29.090Z,12.90
2017-09-17T03:12:56.539Z,12.80
2017-09-17T03:15:23.979Z,12.80
2017-09-17T03:17:51.407Z,12.80
2017-09-17T03:20:18.913Z,12.80
2017-09-17T03:22:46.370Z,12.80
2017-09-17T03:25:13.847Z,12.80
2017-09-17T03:27:41.384Z,12.80
2017-09-17T03:30:08.827Z,12.80
2017-09-17T03:32:36.262Z,12.80
2017-09-17T03:35:03.722Z,12.80
2017-09-17T03:37:31.175Z,12.80
2017-09-17T03:39:58.616Z,12.60
2017-09-17T03:42:26.053Z,12.60
2017-09-17T03:44:53.502Z,12.50
2017-09-17T03:47:21.043Z,12.30
2017-09-17T03:49:48.500Z,12.30
2017-09-17T03:52:15.957Z,12.30
2017-09-17T03:54:43.404Z,12.10
2017-09-17T03:57:10.858Z,11.90
2017-09-17T03:59:39.059Z,11.80
2017-09-17T04:02:06.504Z,11.70
2017-09-17T04:04:34.055Z,11.70
2017-09-17T04:07:01.619Z,11.80
2017-09-17T04:09:29.171Z,11.60
2017-09-17T04:11:56.598Z,11.60
2017-09-17T04:14:24.058Z,11.70
2017-09-17T04:16:51.635Z,11.70
2017-09-17T04:19:19.079Z,11.80
2017-09-17T04:21:46.550Z,11.80
2017-09-17T04:24:13.988Z,11.70
2017-09-17T04:26:41.459Z,11.70
2017-09-17T04:29:08.905Z,11.60
2017-09-17T04:31:36.383Z,11.60
2017-09-17T04:34:03.828Z,11.60
2017-09-17T04:36:31.271Z,11.70
2017-09-17T04:38:58.851Z,11.70
2017-09-17T04:41:26.299Z,11.60
2017-09-17T04:43:53.742Z,11.70
2017-09-17T04:46:21.227Z,11.80
2017-09-17T04:48:48.669Z,11.80
2017-09-17T04:51:16.136Z,11.80
2017-09-17T04:53:43.591Z,11.80
2017-09-17T04:56:11.054Z,11.80
2017-09-17T04:58:38.507Z,11.80
2017-09-17T05:01:05.963Z,11.80
2017-09-17T05:03:33.407Z,11.80
2017-09-17T05:06:00.846Z,11.80
2017-09-17T05:08:28.317Z,11.80
2017-09-17T05:10:55.750Z,11.80
2017-09-17T05:13:23.239Z,11.80
2017-09-17T05:15:50.686Z,11.80
2017-09-17T05:18:18.142Z,11.80
2017-09-17T05:20:45.581Z,11.80
2017-09-17T05:23:13.077Z,11.70
2017-09-17T05:25:40.539Z,11.80
2017-09-17T05:28:08.083Z,11.90
2017-09-17T05:30:35.520Z,12.00
2017-09-17T05:33:02.991Z,12.00
2017-09-17T05:35:30.447Z,12.00
2017-09-17T05:37:57.890Z,12.10
2017-09-17T05:40:25.347Z,12.20
2017-09-17T05:42:52.827Z,12.10
2017-09-17T05:45:20.274Z,11.80
2017-09-17T05:47:47.723Z,11.80
2017-09-17T05:50:15.175Z,11.90
2017-09-17T05:52:42.632Z,12.00
2017-09-17T05:55:10.205Z,12.10
2017-09-17T05:57:37.639Z,12.10
2017-09-17T06:00:05.107Z,12.10
2017-09-17T06:02:32.550Z,12.20
2017-09-17T06:05:00.001Z,12.10
2017-09-17T06:07:27.457Z,12.00
2017-09-17T06:09:54.923Z,12.00
2017-09-17T06:12:22.365Z,12.10
2017-09-17T06:14:49.814Z,12.10
2017-09-17T06:17:17.259Z,12.10
2017-09-17T06:19:44.834Z,12.20
2017-09-17T06:22:12.257Z,12.20
2017-09-17T06:24:40.495Z,12.20
2017-09-17T06:27:08.035Z,12.20
2017-09-17T06:29:35.498Z,12.30
2017-09-17T06:32:02.941Z,12.40
2017-09-17T06:34:30.442Z,12.50
2017-09-17T06:36:58.648Z,12.50
2017-09-17T06:39:26.147Z,12.50
2017-09-17T06:41:53.605Z,12.50
2017-09-17T06:44:21.070Z,12.60
2017-09-17T06:46:48.524Z,12.60
2017-09-17T06:49:15.976Z,12.70
2017-09-17T06:51:43.452Z,12.70
2017-09-17T06:54:10.990Z,12.90
2017-09-17T06:56:38.443Z,13.00
2017-09-17T06:59:05.900Z,13.00
2017-09-17T07:01:33.355Z,13.10
2017-09-17T07:04:00.818Z,13.20
2017-09-17T07:06:28.262Z,13.20
2017-09-17T07:08:55.703Z,13.30
2017-09-17T07:11:23.156Z,13.30
2017-09-17T07:13:50.620Z,13.20
2017-09-17T07:16:18.046Z,13.30
2017-09-17T07:18:45.535Z,13.30
2017-09-17T07:21:12.997Z,13.40
2017-09-17T07:23:40.441Z,13.60
2017-09-17T07:26:07.898Z,13.40
2017-09-17T07:28:35.336Z,13.50
2017-09-17T07:31:02.824Z,13.70
2017-09-17T07:33:30.418Z,13.60
2017-09-17T07:35:57.857Z,13.70
2017-09-17T07:38:25.439Z,13.70
2017-09-17T07:40:53.651Z,13.90
2017-09-17T07:43:21.131Z,13.90
2017-09-17T07:45:48.590Z,14.00
2017-09-17T07:48:16.122Z,14.20
2017-09-17T07:50:43.590Z,14.40
2017-09-17T07:53:11.038Z,14.60
2017-09-17T07:55:38.480Z,14.70
2017-09-17T07:58:05.917Z,14.50
2017-09-17T08:00:33.366Z,14.60
2017-09-17T08:03:00.879Z,14.50
2017-09-17T08:05:28.337Z,14.40
2017-09-17T08:07:55.796Z,14.20
2017-09-17T08:10:23.243Z,14.00
2017-09-17T08:12:50.770Z,13.90
2017-09-17T08:15:18.270Z,13.80
2017-09-17T08:17:46.117Z,13.80
2017-09-17T08:20:13.641Z,14.00
2017-09-17T08:22:41.180Z,14.20
2017-09-17T08:25:08.611Z,14.60
2017-09-17T08:27:36.051Z,14.80
2017-09-17T08:30:03.492Z,14.90
2017-09-17T08:32:30.951Z,15.40
2017-09-17T08:34:58.386Z,15.60
2017-09-17T08:37:25.891Z,16.00
2017-09-17T08:39:53.365Z,16.30
2017-09-17T08:42:20.809Z,16.40
2017-09-17T08:44:48.250Z,16.60
2017-09-17T08:47:15.691Z,16.70
2017-09-17T08:49:43.122Z,16.80
2017-09-17T08:52:10.584Z,16.60
2017-09-17T08:54:38.154Z,16.50
2017-09-17T08:57:05.634Z,16.70
2017-09-17T08:59:33.195Z,16.90
2017-09-17T09:02:00.654Z,17.00
2017-09-17T09:04:28.091Z,16.90
2017-09-17T09:06:55.662Z,16.80
2017-09-17T09:09:23.127Z,16.80
2017-09-17T09:11:50.563Z,17.10
2017-09-17T09:14:18.057Z,17.30
2017-09-17T09:16:45.507Z,17.30
2017-09-17T09:19:13.047Z,17.30
2017-09-17T09:21:40.486Z,17.30
2017-09-17T09:24:07.942Z,17.10
2017-09-17T09:26:35.383Z,17.10
2017-09-17T09:29:03.173Z,17.20
2017-09-17T09:31:30.607Z,17.10
2017-09-17T09:33:58.070Z,17.20
2017-09-17T09:36:25.523Z,17.30
2017-09-17T09:38:53.014Z,17.20
2017-09-17T09:41:20.451Z,17.40
2017-09-17T09:43:47.925Z,17.60
2017-09-17T09:46:15.484Z,17.60
2017-09-17T09:48:42.950Z,17.60
2017-09-17T09:51:10.526Z,17.60
2017-09-17T09:53:37.961Z,17.80
2017-09-17T09:56:05.487Z,17.90
2017-09-17T09:58:32.930Z,18.00
2017-09-17T10:01:00.380Z,18.20
2017-09-17T10:03:27.834Z,18.20
2017-09-17T10:05:56.144Z,17.80
2017-09-17T10:08:23.584Z,17.80
2017-09-17T10:10:51.014Z,17.60
2017-09-17T10:13:19.231Z,17.60
2017-09-17T10:15:46.672Z,17.60
2017-09-17T10:18:14.112Z,17.40
2017-09-17T10:20:42.350Z,16.90
2017-09-17T10:23:09.902Z,16.90
2017-09-17T10:25:37.354Z,16.70
2017-09-17T10:28:04.892Z,16.80
2017-09-17T10:30:32.339Z,16.80
2017-09-17T10:32:59.794Z,16.80
2017-09-17T10:35:27.243Z,16.90
2017-09-17T10:37:54.742Z,16.90
2017-09-17T10:40:22.171Z,17.10
2017-09-17T10:42:49.612Z,17.10
2017-09-17T10:45:17.060Z,17.20
2017-09-17T10:47:44.512Z,17.10
2017-09-17T10:50:12.014Z,17.10
2017-09-17T10:52:39.461Z,17.30
2017-09-17T10:55:06.908Z,17.30
2017-09-17T10:57:34.352Z,17.40
2017-09-17T11:00:01.785Z,17.50
2017-09-17T11:02:29.289Z,17.10
2017-09-17T11:04:56.756Z,16.80
2017-09-17T11:07:24.194Z,17.00
2017-09-17T11:09:51.663Z,17.10
2017-09-17T11:12:19.115Z,17.30
2017-09-17T11:14:46.554Z,17.50
2017-09-17T11:17:14.003Z,17.60
2017-09-17T11:19:41.451Z,17.50
2017-09-17T11:22:08.896Z,17.40
2017-09-17T11:24:36.352Z,17.20
2017-09-17T11:27:03.811Z,16.90
2017-09-17T11:29:31.386Z,16.50
2017-09-17T11:31:58.828Z,16.20
2017-09-17T11:34:26.531Z,15.90
2017-09-17T11:36:53.986Z,15.80
2017-09-17T11:39:21.439Z,15.70
2017-09-17T11:41:49.006Z,15.60
2017-09-17T11:44:16.445Z,15.50
2017-09-17T11:46:43.991Z,15.40
2017-09-17T11:49:11.434Z,15.40
2017-09-17T11:51:38.887Z,15.40
2017-09-17T11:54:07.303Z,15.40
2017-09-17T11:56:34.747Z,15.30
2017-09-17T11:59:02.184Z,15.10
2017-09-17T12:01:29.624Z,15.10
2017-09-17T12:03:57.071Z,15.00
2017-09-17T12:06:25.290Z,14.80
2017-09-17T12:08:52.732Z,14.80
2017-09-17T12:11:20.230Z,14.80
2017-09-17T12:13:47.804Z,14.80
2017-09-17T12:16:15.322Z,14.70
2017-09-17T12:21:34.144Z,14.40
2017-09-17T12:24:02.342Z,14.00
2017-09-17T12:26:29.759Z,14.00
2017-09-17T12:28:57.196Z,13.90
2017-09-17T12:31:24.626Z,13.90
2017-09-17T12:33:52.066Z,13.90
2017-09-17T12:36:19.526Z,13.90
2017-09-17T12:38:46.970Z,14.00
2017-09-17T12:41:14.402Z,14.20
2017-09-17T12:43:42.638Z,14.10
2017-09-17T12:46:10.094Z,14.00
2017-09-17T12:48:37.550Z,14.20
2017-09-17T12:51:04.983Z,14.20
2017-09-17T12:53:32.431Z,14.20
2017-09-17T12:55:59.918Z,14.20
2017-09-17T12:58:27.357Z,14.40
2017-09-17T13:00:54.832Z,14.30
2017-09-17T13:03:22.258Z,14.30
2017-09-17T13:05:49.688Z,14.40
2017-09-17T13:08:17.898Z,14.20
2017-09-17T13:10:45.321Z,14.20
2017-09-17T13:13:12.775Z,14.20
2017-09-17T13:15:41.087Z,14.10
2017-09-17T13:18:08.514Z,14.00
2017-09-17T13:20:36.714Z,13.80
2017-09-17T13:23:04.187Z,13.80
2017-09-17T13:25:31.619Z,13.80
2017-09-17T13:27:59.060Z,13.60
2017-09-17T13:30:26.546Z,13.50
2017-09-17T13:32:53.979Z,13.40
2017-09-17T13:35:21.474Z,13.50
2017-09-17T13:37:48.931Z,13.50
2017-09-17T13:40:16.371Z,13.70
2017-09-17T13:42:43.827Z,13.70
2017-09-17T13:45:11.245Z,13.80
2017-09-17T13:47:39.447Z,14.00
2017-09-17T13:50:06.889Z,13.90
2017-09-17T13:52:35.106Z,13.80
2017-09-17T13:55:02.535Z,13.80
2017-09-17T13:57:29.982Z,13.40
2017-09-17T14:00:08.066Z,13.00
2017-09-17T14:02:41.304Z,12.90
2017-09-17T14:05:09.648Z,13.00
2017-09-17T14:07:39.554Z,13.00
2017-09-17T14:10:06.992Z,12.90
2017-09-17T14:12:34.422Z,12.90
2017-09-17T14:15:01.991Z,13.00
2017-09-17T14:17:29.532Z,13.00
2017-09-17T14:19:56.963Z,13.00
2017-09-17T14:22:24.406Z,13.10
2017-09-17T14:24:52.648Z,13.40
2017-09-17T14:27:20.099Z,13.40
2017-09-17T14:29:47.530Z,13.40
2017-09-17T14:32:14.966Z,13.50
2017-09-17T14:34:42.440Z,13.50
2017-09-17T14:37:09.922Z,13.40
2017-09-17T14:39:37.375Z,13.30
2017-09-17T14:42:04.830Z,13.30
2017-09-17T14:44:32.390Z,13.10
2017-09-17T14:46:59.815Z,13.10
2017-09-17T14:49:27.237Z,13.10
2017-09-17T14:51:54.671Z,13.10
2017-09-17T14:54:22.223Z,13.10
2017-09-17T14:56:49.798Z,13.00
2017-09-17T14:59:17.292Z,13.00
2017-09-17T15:01:44.734Z,12.90
2017-09-17T15:04:12.350Z,12.90
2017-09-17T15:06:39.848Z,12.80
2017-09-17T15:09:08.046Z,13.00
2017-09-17T15:11:35.496Z,12.90
2017-09-17T15:14:02.932Z,13.00
2017-09-17T15:16:30.358Z,13.20
2017-09-17T15:18:57.886Z,13.30
2017-09-17T15:21:25.316Z,13.60
2017-09-17T15:23:53.529Z,13.90
2017-09-17T15:26:20.964Z,13.90
2017-09-17T15:28:48.548Z,13.90
2017-09-17T15:31:15.974Z,13.90
2017-09-17T15:33:43.443Z,13.80
2017-09-17T15:36:10.918Z,13.70
2017-09-17T15:38:38.562Z,14.80
2017-09-17T15:41:06.039Z,13.80
2017-09-17T15:43:33.490Z,13.90
2017-09-17T15:46:00.991Z,14.10
2017-09-17T15:48:29.206Z,14.40
2017-09-17T15:50:56.638Z,14.40
2017-09-17T15:53:24.087Z,14.50
2017-09-17T15:55:52.285Z,14.30
2017-09-17T15:58:19.753Z,14.30
2017-09-17T16:00:47.187Z,14.60
2017-09-17T16:03:14.670Z,14.60
2017-09-17T16:05:42.122Z,14.60
2017-09-17T16:08:09.584Z,14.70
2017-09-17T16:10:37.094Z,14.80
2017-09-17T16:13:04.528Z,15.00
2017-09-17T16:15:32.068Z,15.20
2017-09-17T16:17:59.551Z,15.40
2017-09-17T16:20:27.184Z,15.60
2017-09-17T16:22:55.405Z,15.90
2017-09-17T16:25:22.864Z,15.80
2017-09-17T16:27:50.356Z,15.90
2017-09-17T16:30:17.803Z,16.00
2017-09-17T16:32:45.248Z,16.00
2017-09-17T16:35:12.700Z,16.00
2017-09-17T16:37:40.177Z,15.80
2017-09-17T16:40:07.616Z,15.70
2017-09-17T16:42:35.055Z,15.50
2017-09-17T16:45:02.511Z,15.10
2017-09-17T16:47:29.974Z,14.80
2017-09-17T16:49:57.403Z,14.60
2017-09-17T16:52:24.847Z,14.40
2017-09-17T16:54:52.370Z,14.30
2017-09-17T16:57:19.807Z,14.30
2017-09-17T16:59:47.272Z,14.40
2017-09-17T17:02:14.695Z,14.30
2017-09-17T17:04:42.196Z,14.20
2017-09-17T17:07:09.724Z,14.00
2017-09-17T17:09:37.207Z,13.90
2017-09-17T17:12:04.655Z,13.80
2017-09-17T17:14:32.098Z,13.70
2017-09-17T17:16:59.510Z,13.70
2017-09-17T17:19:27.698Z,13.70
2017-09-17T17:21:55.133Z,13.60
2017-09-17T17:24:22.727Z,13.80
2017-09-17T17:26:50.211Z,13.70
2017-09-17T17:29:17.709Z,13.80
2017-09-17T17:31:45.911Z,13.70
2017-09-17T17:34:13.387Z,13.60
2017-09-17T17:36:40.913Z,13.50
2017-09-17T17:39:08.360Z,13.30
2017-09-17T17:41:36.567Z,13.10
2017-09-17T17:44:04.017Z,13.10
2017-09-17T17:46:31.459Z,13.10
2017-09-17T17:48:59.666Z,13.10
2017-09-17T17:51:27.140Z,13.10
2017-09-17T17:53:54.987Z,13.00
2017-09-17T17:56:22.513Z,13.00
2017-09-17T17:58:50.126Z,12.80
2017-09-17T18:01:17.579Z,12.80
2017-09-17T18:03:45.050Z,12.90
2017-09-17T18:06:12.521Z,12.90
2017-09-17T18:08:40.777Z,12.80
2017-09-17T18:11:08.339Z,12.70
2017-09-17T18:13:35.819Z,12.70
2017-09-17T18:16:03.317Z,12.60
2017-09-17T18:18:30.766Z,12.50
2017-09-17T18:20:58.257Z,12.40
2017-09-17T18:23:25.782Z,14.30
2017-09-17T18:25:53.215Z,12.30
2017-09-17T18:28:20.672Z,12.30
2017-09-17T18:30:48.150Z,12.30
2017-09-17T18:33:15.607Z,12.30
2017-09-17T18:35:43.050Z,12.30
2017-09-17T18:38:10.519Z,12.30
2017-09-17T18:40:37.953Z,12.30
2017-09-17T18:43:05.410Z,12.40
2017-09-17T18:45:32.897Z,12.60
2017-09-17T18:48:00.352Z,12.60
2017-09-17T18:50:33.608Z,12.70
2017-09-17T18:53:01.088Z,12.60
2017-09-17T18:55:28.534Z,12.60
2017-09-17T18:57:56.154Z,12.50
2017-09-17T19:00:24.372Z,12.60
2017-09-17T19:02:51.857Z,12.60
2017-09-17T19:05:19.332Z,12.60
2017-09-17T19:07:46.771Z,12.50
2017-09-17T19:10:14.458Z,12.50
2017-09-17T19:12:43.501Z,12.40
2017-09-17T19:15:10.950Z,12.40
2017-09-17T19:17:38.428Z,12.50
2017-09-17T19:20:05.878Z,12.60
2017-09-17T19:22:33.434Z,12.80
2017-09-17T19:25:00.903Z,12.90
2017-09-17T19:27:28.333Z,13.00
2017-09-17T19:29:55.799Z,13.20
2017-09-17T19:32:23.255Z,13.30
2017-09-17T19:34:50.712Z,13.40
2017-09-17T19:37:18.152Z,13.40
2017-09-17T19:39:45.597Z,13.40
2017-09-17T19:42:13.046Z,13.50
2017-09-17T19:44:40.512Z,13.50
2017-09-17T19:47:07.974Z,13.30
2017-09-17T19:49:35.447Z,13.30
2017-09-17T19:52:02.906Z,13.30
2017-09-17T19:54:30.360Z,13.20
2017-09-17T19:56:57.811Z,13.10
2017-09-17T19:59:25.257Z,13.10
2017-09-17T20:01:52.703Z,13.00
2017-09-17T20:04:20.139Z,13.00
2017-09-17T20:06:48.342Z,13.00
2017-09-17T20:09:15.811Z,12.90
2017-09-17T20:11:43.239Z,13.00
2017-09-17T20:14:10.752Z,13.00
2017-09-17T20:16:39.235Z,13.00
2017-09-17T20:19:06.670Z,13.00
2017-09-17T20:21:34.119Z,13.00
2017-09-17T20:24:01.591Z,13.00
2017-09-17T20:26:29.027Z,13.20
2017-09-17T20:28:56.462Z,13.30
2017-09-17T20:31:23.946Z,13.30
2017-09-17T20:33:51.391Z,13.30
2017-09-17T20:36:18.831Z,13.20
2017-09-17T20:38:46.268Z,13.20
2017-09-17T20:41:14.603Z,12.90
2017-09-17T20:43:42.087Z,12.90
2017-09-17T20:46:09.527Z,12.70
2017-09-17T20:48:36.970Z,12.60
2017-09-17T20:51:04.411Z,12.60
2017-09-17T20:53:31.866Z,12.60
2017-09-17T20:55:59.312Z,12.40
2017-09-17T20:58:26.792Z,12.20
2017-09-17T21:00:54.232Z,12.20
2017-09-17T21:03:21.672Z,12.30
2017-09-17T21:05:49.136Z,12.30
2017-09-17T21:08:16.623Z,12.40
2017-09-17T21:10:44.069Z,12.50
2017-09-17T21:13:11.569Z,12.50
2017-09-17T21:15:39.818Z,12.40
2017-09-17T21:18:07.282Z,12.30
2017-09-17T21:20:34.714Z,12.50
2017-09-17T21:23:02.164Z,12.50
2017-09-17T21:25:29.604Z,12.40
2017-09-17T21:27:57.060Z,12.40
2017-09-17T21:30:24.518Z,12.50
2017-09-17T21:32:51.967Z,12.30
2017-09-17T21:35:19.394Z,12.00
2017-09-17T21:37:46.846Z,11.90
2017-09-17T21:40:14.274Z,11.90
2017-09-17T21:42:41.727Z,12.00
2017-09-17T21:45:09.274Z,12.10
2017-09-17T21:47:36.739Z,12.10
2017-09-17T21:50:04.223Z,12.20
2017-09-17T21:52:31.751Z,12.30
2017-09-17T21:54:59.202Z,12.30
2017-09-17T21:57:26.647Z,12.40
2017-09-17T21:59:54.123Z,12.30
2017-09-17T22:02:21.571Z,12.30
2017-09-17T22:04:49.027Z,12.10
2017-09-17T22:07:16.471Z,12.20
2017-09-17T22:09:43.926Z,12.30
2017-09-17T22:12:11.382Z,12.40
2017-09-17T22:14:38.850Z,12.50
2017-09-17T22:17:06.305Z,12.40
2017-09-17T22:19:33.824Z,12.40
2017-09-17T22:22:01.214Z,12.30
2017-09-17T22:24:28.646Z,12.40
2017-09-17T22:26:56.118Z,12.30
2017-09-17T22:29:23.567Z,12.40
2017-09-17T22:31:51.052Z,12.40
2017-09-17T22:34:18.499Z,12.30
2017-09-17T22:36:45.945Z,12.30
2017-09-17T22:39:13.400Z,12.30
2017-09-17T22:41:40.846Z,12.30
2017-09-17T22:44:08.294Z,12.30
2017-09-17T22:46:35.740Z,12.30
2017-09-17T22:49:03.243Z,12.40
2017-09-17T22:51:30.691Z,12.40
2017-09-17T22:53:58.155Z,12.40
2017-09-17T22:56:25.587Z,12.40
2017-09-17T22:58:53.027Z,12.40
2017-09-17T23:01:20.466Z,12.30
2017-09-17T23:03:48.680Z,12.30
2017-09-17T23:06:16.134Z,12.20
2017-09-17T23:08:43.583Z,12.30
2017-09-17T23:11:11.071Z,12.30
2017-09-17T23:13:38.515Z,12.40
2017-09-17T23:16:06.004Z,12.40
2017-09-17T23:18:33.446Z,12.30
2017-09-17T23:21:00.886Z,12.20
2017-09-17T23:23:28.326Z,12.30
2017-09-17T23:25:55.803Z,12.30
2017-09-17T23:28:23.372Z,12.20
2017-09-17T23:30:50.925Z,12.30
2017-09-17T23:33:18.373Z,12.40
2017-09-17T23:35:45.799Z,12.30
2017-09-17T23:38:13.245Z,12.30
2017-09-17T23:40:41.458Z,12.40
2017-09-17T23:43:08.913Z,12.40
2017-09-17T23:45:36.378Z,12.50
2017-09-17T23:48:03.826Z,12.40
2017-09-17T23:50:31.260Z,12.40
2017-09-17T23:52:58.747Z,12.20
2017-09-17T23:55:26.202Z,11.90
2017-09-17T23:57:53.655Z,11.70
